Time;durP1;ratioP1;P1;durP2;ratioP2;P2;SDS_P1;SDS_P2;PMS_P1;PMS_P2;Temp;Humidity;BMP_temperature;BMP_pressure;BME280_temperature;BME280_humidity;BME280_pressure;Samples;Min_cycle;Max_cycle;Signal;HPM_P1;HPM_P2
2023/04/23 00:00:05;;;;;;;8.60;2.05;;;;;;;13.99;67.44;100293.84;5068760;28;20056;-63
2023/04/23 00:02:38;;;;;;;9.75;2.53;;;;;;;13.96;67.75;100290.97;5065788;28;20045;-65
2023/04/23 00:05:06;;;;;;;14.65;2.88;;;;;;;13.91;68.10;100291.19;5069680;28;20064;-64
2023/04/23 00:07:35;;;;;;;14.77;2.08;;;;;;;13.79;68.33;100278.13;5063536;28;20063;-65
2023/04/23 00:10:04;;;;;;;10.77;2.58;;;;;;;13.95;68.10;100289.31;5051328;28;20048;-64
2023/04/23 00:12:32;;;;;;;10.32;2.40;;;;;;;13.89;68.33;100288.78;5050916;28;20052;-64
2023/04/23 00:15:00;;;;;;;7.88;2.17;;;;;;;13.57;69.72;100296.00;5070932;28;20052;-64
2023/04/23 00:17:27;;;;;;;11.75;2.60;;;;;;;13.74;69.67;100294.97;5066618;28;20049;-65
2023/04/23 00:19:55;;;;;;;11.75;2.55;;;;;;;13.79;69.30;100305.81;5072983;28;20388;-64
2023/04/23 00:22:22;;;;;;;10.60;2.78;;;;;;;13.58;70.00;100308.69;5070256;28;20047;-65
2023/04/23 00:24:49;;;;;;;14.07;2.45;;;;;;;13.70;69.91;100296.84;5070065;28;20400;-64
2023/04/23 00:27:17;;;;;;;10.88;2.38;;;;;;;13.81;69.71;100297.19;5071205;28;20052;-64
2023/04/23 00:29:45;;;;;;;9.90;2.20;;;;;;;13.89;69.21;100290.72;5070836;28;20051;-64
2023/04/23 00:32:13;;;;;;;11.95;2.63;;;;;;;13.72;69.69;100293.72;5065840;28;20953;-64
2023/04/23 00:34:40;;;;;;;10.77;2.13;;;;;;;13.73;70.16;100301.69;5071134;28;20056;-64
2023/04/23 00:37:09;;;;;;;13.40;2.47;;;;;;;13.71;70.54;100292.09;5071022;28;20389;-65
2023/04/23 00:39:37;;;;;;;14.82;3.03;;;;;;;13.63;70.58;100301.31;5072274;28;20055;-67
2023/04/23 00:42:11;;;;;;;13.32;3.05;;;;;;;13.67;70.96;100293.94;5072047;28;20068;-63
2023/04/23 00:44:39;;;;;;;12.35;2.42;;;;;;;13.64;71.40;100300.97;5072904;28;20049;-64
2023/04/23 00:47:07;;;;;;;12.82;2.58;;;;;;;13.57;71.53;100298.78;5070031;28;20047;-64
2023/04/23 00:49:35;;;;;;;12.15;2.15;;;;;;;13.63;71.79;100287.47;5074480;28;20079;-64
2023/04/23 00:52:02;;;;;;;13.70;2.45;;;;;;;13.59;71.88;100290.13;5069489;28;20041;-64
2023/04/23 00:54:30;;;;;;;9.93;1.92;;;;;;;13.45;72.59;100290.44;5066485;28;20055;-63
2023/04/23 00:56:58;;;;;;;14.82;2.88;;;;;;;13.64;72.45;100286.31;5075180;28;20052;-63
2023/04/23 00:59:27;;;;;;;15.02;2.50;;;;;;;13.38;72.89;100284.66;5074942;28;20044;-63
2023/04/23 01:01:55;;;;;;;8.20;2.22;;;;;;;13.45;73.07;100284.91;5071725;28;20049;-63
2023/04/23 01:04:23;;;;;;;13.55;2.65;;;;;;;13.46;73.18;100272.69;5071744;28;20036;-64
2023/04/23 01:06:53;;;;;;;11.63;2.40;;;;;;;13.40;73.45;100273.25;5075138;28;20045;-64
2023/04/23 01:09:21;;;;;;;10.95;2.67;;;;;;;13.50;72.83;100270.03;5079117;28;20063;-63
2023/04/23 01:11:49;;;;;;;17.85;2.53;;;;;;;13.48;73.07;100272.34;5073539;28;20052;-64
2023/04/23 01:14:17;;;;;;;12.70;2.50;;;;;;;13.46;73.46;100272.69;5058179;28;20044;-64
2023/04/23 01:16:45;;;;;;;14.65;2.55;;;;;;;13.43;73.58;100267.03;5055353;28;20044;-66
2023/04/23 01:19:14;;;;;;;11.95;2.70;;;;;;;13.23;74.60;100257.66;5075653;28;20752;-65
2023/04/23 01:21:42;;;;;;;19.00;2.80;;;;;;;13.32;74.53;100255.59;5074658;28;20052;-64
2023/04/23 01:24:10;;;;;;;15.88;2.40;;;;;;;13.29;74.42;100258.25;5076236;28;20057;-65
2023/04/23 01:26:39;;;;;;;11.27;2.17;;;;;;;12.99;75.47;100257.56;5068713;28;20075;-64
2023/04/23 01:29:08;;;;;;;11.25;2.30;;;;;;;13.03;76.19;100255.75;5056106;28;20056;-64
2023/04/23 01:31:36;;;;;;;8.60;2.33;;;;;;;12.95;76.59;100259.41;5050869;28;20055;-63
2023/04/23 01:34:04;;;;;;;11.32;2.35;;;;;;;13.09;76.19;100259.91;5071093;28;20597;-66
2023/04/23 01:36:32;;;;;;;14.32;2.45;;;;;;;12.93;76.58;100256.16;5068700;28;20049;-64
2023/04/23 01:38:59;;;;;;;14.70;2.33;;;;;;;12.90;77.30;100262.34;5068431;28;20380;-65
2023/04/23 01:41:27;;;;;;;11.10;2.70;;;;;;;13.03;76.63;100250.22;5070038;28;20056;-65
2023/04/23 01:43:56;;;;;;;12.27;2.40;;;;;;;13.04;76.94;100251.06;5072388;28;20052;-64
2023/04/23 01:46:24;;;;;;;12.30;2.72;;;;;;;12.82;77.45;100254.13;5073610;28;20426;-64
2023/04/23 01:48:51;;;;;;;14.75;2.78;;;;;;;12.89;77.46;100243.34;5056103;28;20053;-65
2023/04/23 01:51:19;;;;;;;10.98;2.65;;;;;;;12.80;77.47;100240.66;5071768;28;20067;-63
2023/04/23 01:53:46;;;;;;;11.50;2.33;;;;;;;12.68;78.46;100242.56;5057566;28;20055;-64
2023/04/23 01:56:15;;;;;;;13.55;3.08;;;;;;;12.83;78.14;100239.97;5071159;28;20048;-63
2023/04/23 01:58:43;;;;;;;11.18;2.45;;;;;;;12.62;78.96;100233.69;5085689;28;20787;-64
2023/04/23 02:01:10;;;;;;;14.23;2.60;;;;;;;12.56;79.64;100234.22;5070108;28;20055;-62
2023/04/23 02:03:37;;;;;;;16.33;2.95;;;;;;;12.66;79.36;100234.63;5072171;28;20041;-64
2023/04/23 02:06:05;;;;;;;10.23;2.22;;;;;;;12.64;79.26;100238.88;5072767;28;20044;-64
2023/04/23 02:08:32;;;;;;;16.13;2.67;;;;;;;12.61;79.64;100234.81;5073553;28;20174;-63
2023/04/23 02:11:00;;;;;;;14.60;3.00;;;;;;;12.71;79.04;100226.13;5072016;28;20059;-64
2023/04/23 02:13:27;;;;;;;18.95;3.55;;;;;;;12.52;78.92;100241.59;5072927;28;20044;-64
2023/04/23 02:15:54;;;;;;;10.50;2.50;;;;;;;12.66;79.41;100242.13;5071248;28;20519;-65
2023/04/23 02:18:22;;;;;;;10.40;2.55;;;;;;;12.60;79.27;100244.28;5073055;28;20092;-64
2023/04/23 02:20:49;;;;;;;10.63;2.65;;;;;;;12.65;79.07;100241.31;5070932;28;20056;-64
2023/04/23 02:23:17;;;;;;;10.60;2.30;;;;;;;12.64;78.97;100241.66;5070113;28;20056;-64
2023/04/23 02:25:44;;;;;;;11.25;2.70;;;;;;;12.77;78.69;100230.31;5065678;28;20048;-65
2023/04/23 02:28:12;;;;;;;17.10;3.47;;;;;;;12.60;79.27;100236.00;5072680;28;20103;-64
2023/04/23 02:30:45;;;;;;;16.77;3.55;;;;;;;12.56;79.21;100243.31;5071534;28;20487;-65
2023/04/23 02:33:13;;;;;;;15.75;2.75;;;;;;;12.39;79.98;100243.47;5064626;28;20167;-63
2023/04/23 02:35:40;;;;;;;12.02;2.92;;;;;;;12.38;80.48;100239.91;5071992;28;20068;-64
2023/04/23 02:38:07;;;;;;;13.00;3.00;;;;;;;12.15;80.97;100232.28;5072310;28;20053;-64
2023/04/23 02:40:35;;;;;;;11.20;2.67;;;;;;;12.15;81.44;100224.78;5073124;28;20052;-67
2023/04/23 02:43:02;;;;;;;18.67;3.38;;;;;;;11.98;82.04;100233.19;5074729;28;20049;-65
2023/04/23 02:45:30;;;;;;;11.45;2.58;;;;;;;11.98;82.65;100224.91;5073122;28;20057;-65
2023/04/23 02:47:58;;;;;;;17.88;3.75;;;;;;;11.82;83.12;100228.59;5065482;28;20563;-63
2023/04/23 02:50:26;;;;;;;13.02;3.13;;;;;;;11.91;83.36;100223.81;5070552;28;20150;-64
2023/04/23 02:52:53;;;;;;;13.85;2.95;;;;;;;12.03;82.55;100215.66;5069648;28;20056;-64
2023/04/23 02:55:20;;;;;;;13.00;3.20;;;;;;;12.02;82.50;100214.00;5072772;28;20045;-64
2023/04/23 02:57:47;;;;;;;10.98;3.08;;;;;;;11.73;83.42;100220.38;5073042;28;20053;-65
2023/04/23 03:00:15;;;;;;;12.93;2.67;;;;;;;11.70;83.67;100212.75;5069676;28;20077;-64
2023/04/23 03:02:43;;;;;;;12.65;2.90;;;;;;;11.69;84.24;100216.66;5071954;28;20049;-64
2023/04/23 03:05:11;;;;;;;14.18;3.00;;;;;;;11.71;84.42;100210.81;5073804;28;20040;-64
2023/04/23 03:07:39;;;;;;;14.30;3.17;;;;;;;11.59;84.65;100207.91;5073172;28;20044;-64
2023/04/23 03:10:07;;;;;;;13.30;3.55;;;;;;;11.80;84.56;100204.06;5073986;28;20057;-64
2023/04/23 03:12:35;;;;;;;12.02;3.33;;;;;;;11.67;84.12;100209.84;5069553;28;20036;-64
2023/04/23 03:15:02;;;;;;;11.60;3.40;;;;;;;11.72;83.92;100209.66;5052169;28;20052;-64
2023/04/23 03:17:32;;;;;;;14.73;3.40;;;;;;;11.67;84.32;100201.56;5070106;28;20079;-63
2023/04/23 03:20:00;;;;;;;15.35;3.33;;;;;;;11.66;83.67;100195.25;5063232;28;20491;-64
2023/04/23 03:22:27;;;;;;;11.60;3.05;;;;;;;11.51;85.09;100183.94;5070156;28;20059;-64
2023/04/23 03:24:55;;;;;;;8.10;3.33;;;;;;;11.40;85.43;100186.28;5071047;28;20048;-63
2023/04/23 03:27:22;;;;;;;10.52;3.72;;;;;;;11.31;86.47;100182.75;5069861;28;20507;-64
2023/04/23 03:29:49;;;;;;;10.52;3.67;;;;;;;11.43;86.48;100185.59;5070499;28;20059;-64
2023/04/23 03:32:17;;;;;;;9.95;3.40;;;;;;;11.25;87.37;100190.38;5068346;28;20044;-67
2023/04/23 03:34:44;;;;;;;12.43;3.40;;;;;;;11.31;87.30;100188.25;5056178;28;20044;-65
2023/04/23 03:37:12;;;;;;;12.75;3.58;;;;;;;11.18;87.54;100195.59;5047996;28;20053;-63
2023/04/23 03:39:40;;;;;;;11.23;3.55;;;;;;;11.12;88.31;100193.38;5083030;28;20055;-64
2023/04/23 03:42:08;;;;;;;14.18;3.83;;;;;;;11.08;88.13;100184.13;5050109;28;20052;-64
2023/04/23 03:44:37;;;;;;;14.50;3.55;;;;;;;11.24;88.13;100182.44;5056417;28;20064;-65
2023/04/23 03:47:05;;;;;;;14.27;3.85;;;;;;;11.26;87.71;100186.47;5071986;28;20511;-65
2023/04/23 03:49:33;;;;;;;9.57;3.33;;;;;;;11.13;87.45;100193.03;5067592;28;20056;-64
2023/04/23 03:52:01;;;;;;;9.80;4.00;;;;;;;10.95;88.60;100190.63;5070460;28;20055;-64
2023/04/23 03:54:30;;;;;;;17.55;3.35;;;;;;;11.06;88.51;100183.66;5071007;28;20502;-64
2023/04/23 03:57:08;;;;;;;15.52;3.67;;;;;;;10.99;88.94;100175.88;5069725;28;20132;-65
2023/04/23 03:59:42;;;;;;;19.67;4.38;;;;;;;11.09;88.34;100175.53;5056503;28;20068;-65
2023/04/23 04:02:10;;;;;;;16.17;3.88;;;;;;;11.01;88.78;100186.59;5085547;28;20059;-64
2023/04/23 04:04:37;;;;;;;8.82;3.22;;;;;;;10.88;89.34;100188.41;5069524;28;20048;-64
2023/04/23 04:07:06;;;;;;;15.07;4.07;;;;;;;10.80;90.56;100188.41;5068860;28;20048;-64
2023/04/23 04:09:33;;;;;;;23.15;5.15;;;;;;;10.91;90.03;100178.69;5070720;28;20053;-64
2023/04/23 04:12:01;;;;;;;17.35;3.83;;;;;;;11.06;89.18;100165.16;5067798;28;20056;-63
2023/04/23 04:14:30;;;;;;;11.25;3.67;;;;;;;11.10;88.43;100163.38;5050956;28;20053;-64
2023/04/23 04:16:57;;;;;;;16.63;3.53;;;;;;;10.91;89.14;100167.66;5071226;28;20045;-63
2023/04/23 04:19:25;;;;;;;20.35;4.28;;;;;;;10.91;89.41;100165.69;5069287;28;20044;-65
2023/04/23 04:21:52;;;;;;;15.68;4.05;;;;;;;10.85;90.25;100163.44;5068729;28;20166;-63
2023/04/23 04:24:21;;;;;;;13.80;4.03;;;;;;;10.81;90.16;100160.53;5056741;28;20503;-64
2023/04/23 04:26:52;;;;;;;10.13;3.58;;;;;;;10.66;90.63;100160.25;5068789;28;20056;-64
2023/04/23 04:29:20;;;;;;;13.40;3.65;;;;;;;10.65;90.27;100153.94;5069183;28;20045;-64
2023/04/23 04:31:47;;;;;;;14.13;3.58;;;;;;;10.76;90.44;100154.38;5069991;28;20048;-64
2023/04/23 04:34:16;;;;;;;16.65;4.47;;;;;;;10.66;90.43;100161.06;5053565;28;20051;-64
2023/04/23 04:36:44;;;;;;;14.02;3.50;;;;;;;10.55;90.85;100162.53;5071429;28;20049;-65
2023/04/23 04:39:13;;;;;;;13.30;3.63;;;;;;;10.48;91.58;100156.72;5069988;28;20048;-63
2023/04/23 04:41:41;;;;;;;10.88;3.80;;;;;;;10.45;91.15;100154.63;5065607;28;20067;-63
2023/04/23 04:44:08;;;;;;;17.58;3.70;;;;;;;10.82;90.55;100144.81;5069771;28;20060;-63
2023/04/23 04:46:39;;;;;;;9.15;3.72;;;;;;;10.63;90.53;100152.66;5069019;28;20044;-64
2023/04/23 04:49:07;;;;;;;16.15;3.35;;;;;;;10.78;89.55;100138.34;5069245;28;20503;-63
2023/04/23 04:51:39;;;;;;;12.23;3.47;;;;;;;10.37;91.10;100133.44;5069662;28;20063;-65
2023/04/23 04:54:07;;;;;;;11.75;3.63;;;;;;;10.59;91.04;100137.91;5070000;28;20052;-64
2023/04/23 04:56:34;;;;;;;12.00;3.08;;;;;;;10.55;90.60;100135.00;5070550;28;20781;-64
2023/04/23 04:59:02;;;;;;;15.98;3.40;;;;;;;10.76;90.05;100130.41;5053733;28;20059;-64
2023/04/23 05:01:31;;;;;;;12.80;3.55;;;;;;;10.64;89.41;100122.03;5064941;28;20514;-64
2023/04/23 05:03:58;;;;;;;11.90;3.60;;;;;;;10.59;89.62;100132.41;5071941;28;20049;-64
2023/04/23 05:06:27;;;;;;;15.38;3.63;;;;;;;10.75;89.45;100134.31;5068807;28;20049;-64
2023/04/23 05:08:54;;;;;;;10.60;3.47;;;;;;;10.75;88.71;100136.25;5071581;28;20106;-63
2023/04/23 05:11:22;;;;;;;16.95;3.55;;;;;;;10.92;88.26;100130.69;5069385;28;20052;-63
2023/04/23 05:13:50;;;;;;;15.00;3.72;;;;;;;10.86;87.37;100132.03;5070816;28;20060;-63
2023/04/23 05:16:18;;;;;;;14.77;3.60;;;;;;;10.90;87.07;100128.25;5068254;28;20396;-63
2023/04/23 05:18:45;;;;;;;19.48;4.05;;;;;;;10.72;87.67;100128.66;5052584;28;20048;-64
2023/04/23 05:21:14;;;;;;;12.27;3.75;;;;;;;10.83;87.16;100125.22;5070135;28;20052;-63
2023/04/23 05:23:41;;;;;;;14.48;3.15;;;;;;;10.87;86.92;100130.88;5071732;28;20055;-63
2023/04/23 05:26:08;;;;;;;9.88;3.42;;;;;;;10.86;87.02;100132.81;5070364;28;20052;-64
2023/04/23 05:28:36;;;;;;;9.55;3.20;;;;;;;11.16;85.82;100136.41;5070517;28;20053;-65
2023/04/23 05:31:03;;;;;;;11.52;2.90;;;;;;;11.08;85.67;100129.00;5072461;28;20045;-67
2023/04/23 05:33:31;;;;;;;11.40;3.20;;;;;;;10.98;86.16;100132.13;5070692;28;20052;-66
2023/04/23 05:36:12;;;;;;;12.52;3.17;;;;;;;10.95;86.36;100128.06;5055151;28;20507;-68
2023/04/23 05:38:40;;;;;;;18.55;3.83;;;;;;;10.95;86.06;100117.06;5071654;28;20052;-66
2023/04/23 05:41:07;;;;;;;14.63;2.70;;;;;;;10.73;86.85;100111.78;5074055;28;20052;-67
2023/04/23 05:43:34;;;;;;;12.98;2.53;;;;;;;10.85;87.00;100116.59;5076991;28;20052;-67
2023/04/23 05:46:03;;;;;;;8.20;3.15;;;;;;;10.86;86.93;100119.03;5076040;28;20044;-67
2023/04/23 05:48:30;;;;;;;12.88;3.20;;;;;;;10.83;86.72;100108.69;5073444;28;20807;-66
2023/04/23 05:50:58;;;;;;;12.13;3.00;;;;;;;10.75;87.44;100104.03;5072781;28;20059;-67
2023/04/23 05:53:26;;;;;;;13.05;2.88;;;;;;;10.84;87.65;100110.31;5073773;28;20377;-67
2023/04/23 05:55:54;;;;;;;9.80;2.70;;;;;;;10.91;87.22;100109.78;5074505;28;20060;-66
2023/04/23 05:58:22;;;;;;;9.90;3.08;;;;;;;11.15;86.20;100110.81;5074186;28;20507;-67
2023/04/23 06:00:49;;;;;;;8.80;2.22;;;;;;;11.13;85.33;100117.78;5072463;28;20064;-68
2023/04/23 06:03:16;;;;;;;9.98;2.70;;;;;;;11.02;85.53;100111.84;5067817;28;20530;-66
2023/04/23 06:05:44;;;;;;;12.45;2.85;;;;;;;10.95;86.14;100107.97;5076097;28;20056;-67
2023/04/23 06:08:11;;;;;;;10.07;2.70;;;;;;;11.07;86.00;100114.41;5073870;28;20056;-67
2023/04/23 06:10:39;;;;;;;10.20;2.80;;;;;;;11.08;85.57;100106.97;5072334;28;20061;-67
2023/04/23 06:13:06;;;;;;;16.15;3.28;;;;;;;11.11;85.26;100109.84;5072500;28;20069;-66
2023/04/23 06:15:35;;;;;;;11.70;2.33;;;;;;;11.04;86.00;100112.31;5073889;28;20055;-67
2023/04/23 06:18:02;;;;;;;13.93;2.70;;;;;;;10.84;86.54;100113.06;5070663;28;20044;-68
2023/04/23 06:20:29;;;;;;;17.35;3.90;;;;;;;10.99;86.46;100114.44;5073275;28;20056;-66
2023/04/23 06:22:57;;;;;;;12.48;2.67;;;;;;;11.07;86.58;100119.91;5022918;28;20052;-66
2023/04/23 06:25:24;;;;;;;9.65;2.85;;;;;;;11.20;86.18;100107.06;5072605;28;20067;-67
2023/04/23 06:27:53;;;;;;;14.10;2.80;;;;;;;11.20;86.07;100107.88;5071673;28;20044;-67
2023/04/23 06:30:24;;;;;;;12.48;2.65;;;;;;;11.51;85.60;100106.69;5056624;28;20048;-67
2023/04/23 06:32:51;;;;;;;12.68;3.40;;;;;;;11.27;85.79;100097.13;5071367;28;20068;-66
2023/04/23 06:35:19;;;;;;;14.57;2.70;;;;;;;11.40;85.76;100097.22;5055855;28;21106;-68
2023/04/23 06:37:46;;;;;;;11.88;3.45;;;;;;;11.33;86.45;100104.06;5069061;28;20044;-66
2023/04/23 06:40:14;;;;;;;11.70;3.20;;;;;;;11.42;86.58;100097.69;5040912;28;20056;-66
2023/04/23 06:42:41;;;;;;;9.90;2.55;;;;;;;11.32;87.06;100091.44;5071748;28;20048;-67
2023/04/23 06:45:32;;;;;;;14.77;3.67;;;;;;;11.32;88.21;100096.94;5070176;28;20154;-67
2023/04/23 06:47:59;;;;;;;15.48;3.10;;;;;;;11.48;87.47;100097.16;5070482;28;20048;-67
2023/04/23 06:50:27;;;;;;;12.65;3.42;;;;;;;11.52;87.66;100092.59;5039313;28;20048;-67
2023/04/23 06:52:55;;;;;;;13.95;3.40;;;;;;;11.44;88.31;100093.44;5072272;28;20528;-68
2023/04/23 06:55:25;;;;;;;11.45;3.10;;;;;;;11.45;89.65;100086.00;5069984;28;20591;-67
2023/04/23 06:57:52;;;;;;;;;;;;;;;11.45;90.25;100086.81;5071346;28;20037;-67
2023/04/23 07:00:20;;;;;;;12.23;2.90;;;;;;;11.48;89.89;100077.84;5072940;28;20288;-66
2023/04/23 07:02:48;;;;;;;9.90;3.40;;;;;;;11.56;90.03;100085.25;5067872;28;20201;-67
2023/04/23 07:05:16;;;;;;;10.05;3.28;;;;;;;11.52;89.68;100084.34;5074336;28;20047;-67
2023/04/23 07:07:44;;;;;;;11.27;3.80;;;;;;;11.26;91.07;100069.91;5068598;28;20507;-67
2023/04/23 07:10:11;;;;;;;10.57;3.63;;;;;;;11.48;91.88;100068.78;5069250;28;20052;-67
2023/04/23 07:12:40;;;;;;;9.48;3.90;;;;;;;11.72;90.66;100071.69;5071665;28;20057;-68
2023/04/23 07:15:07;;;;;;;12.27;3.55;;;;;;;11.63;90.03;100068.19;5064699;28;20049;-67
2023/04/23 07:17:35;;;;;;;8.88;3.80;;;;;;;11.51;90.99;100066.16;5067653;28;20048;-67
2023/04/23 07:20:05;;;;;;;12.27;5.00;;;;;;;11.45;91.55;100067.50;5071250;28;20067;-67
2023/04/23 07:22:33;;;;;;;8.45;3.83;;;;;;;11.34;92.78;100058.00;5064555;28;20056;-68
2023/04/23 07:25:01;;;;;;;13.10;4.40;;;;;;;11.30;93.83;100065.31;5071694;28;20048;-67
2023/04/23 07:27:28;;;;;;;12.23;4.07;;;;;;;11.37;94.37;100062.06;5071453;28;20519;-67
2023/04/23 07:29:57;;;;;;;12.27;4.03;;;;;;;11.51;93.77;100055.13;5054502;28;20052;-67
2023/04/23 07:32:26;;;;;;;11.25;3.80;;;;;;;11.51;93.85;100049.59;5066571;28;20063;-68
2023/04/23 07:34:57;;;;;;;11.63;4.82;;;;;;;11.35;94.61;100054.09;5070311;28;20059;-67
2023/04/23 07:37:24;;;;;;;9.57;4.78;;;;;;;11.47;94.65;100036.84;5073820;28;20051;-67
2023/04/23 07:39:52;;;;;;;11.68;4.50;;;;;;;11.57;94.82;100036.44;5072272;28;20052;-67
2023/04/23 07:42:20;;;;;;;12.40;5.40;;;;;;;11.60;94.57;100035.75;5074566;28;20055;-67
2023/04/23 07:44:47;;;;;;;12.80;5.88;;;;;;;11.53;94.20;100025.25;5069811;28;20403;-67
2023/04/23 07:47:14;;;;;;;13.73;5.00;;;;;;;11.60;94.48;100022.78;5069540;28;20049;-67
2023/04/23 07:49:42;;;;;;;12.70;5.30;;;;;;;11.39;95.88;100041.25;5072369;28;20048;-67
2023/04/23 07:52:10;;;;;;;12.38;5.20;;;;;;;11.64;95.98;100053.25;5069678;28;20052;-65
2023/04/23 07:54:37;;;;;;;10.35;4.85;;;;;;;11.72;95.17;100044.13;5068966;28;20048;-65
2023/04/23 07:57:05;;;;;;;11.90;5.32;;;;;;;11.56;96.09;100034.81;5067267;28;20057;-65
2023/04/23 07:59:32;;;;;;;9.65;4.75;;;;;;;11.75;95.90;100024.94;5068052;28;20044;-66
2023/04/23 08:02:00;;;;;;;13.27;5.25;;;;;;;11.66;96.16;100012.38;5062634;28;20068;-65
2023/04/23 08:04:27;;;;;;;10.38;4.75;;;;;;;11.83;95.54;100003.94;5059296;28;20056;-66
2023/04/23 08:06:55;;;;;;;9.02;4.97;;;;;;;11.62;96.70;99998.41;5057905;28;20063;-67
2023/04/23 08:09:22;;;;;;;8.68;4.47;;;;;;;11.83;96.07;99990.97;5069361;28;20037;-66
2023/04/23 08:11:49;;;;;;;11.00;5.50;;;;;;;12.03;94.98;99990.09;5059462;28;20056;-65
2023/04/23 08:14:17;;;;;;;10.07;5.53;;;;;;;11.93;95.61;99987.78;5069648;28;20049;-66
2023/04/23 08:16:45;;;;;;;13.70;5.47;;;;;;;11.92;96.35;99982.59;5068786;28;20063;-65
2023/04/23 08:19:12;;;;;;;8.20;5.50;;;;;;;12.08;96.91;99961.47;5070264;28;20452;-66
2023/04/23 08:21:39;;;;;;;8.68;5.13;;;;;;;12.23;95.38;99950.59;5065113;28;20053;-65
2023/04/23 08:24:07;;;;;;;11.30;5.45;;;;;;;12.37;94.40;99947.50;5069791;28;20052;-66
2023/04/23 08:26:34;;;;;;;10.43;5.10;;;;;;;12.31;94.91;99935.03;5064572;28;20044;-66
2023/04/23 08:29:04;;;;;;;9.98;5.15;;;;;;;12.29;95.38;99921.59;5068232;28;20424;-67
2023/04/23 08:31:31;;;;;;;11.32;5.60;;;;;;;12.59;94.92;99915.84;5073735;28;20052;-65
2023/04/23 08:33:59;;;;;;;8.52;4.88;;;;;;;12.61;94.49;99908.81;5058835;28;20052;-64
2023/04/23 08:36:26;;;;;;;9.23;5.13;;;;;;;12.76;92.90;99908.09;5068150;28;20048;-64
2023/04/23 08:38:53;;;;;;;10.40;5.38;;;;;;;12.80;93.75;99914.56;5061993;28;20052;-63
2023/04/23 08:41:23;;;;;;;9.80;5.38;;;;;;;13.04;93.43;99911.78;5071090;28;20048;-64
2023/04/23 08:44:17;;;;;;;9.73;5.93;;;;;;;13.01;91.88;99893.09;5071482;28;20059;-70
2023/04/23 08:46:44;;;;;;;14.85;5.60;;;;;;;13.01;91.81;99875.69;5068484;28;20299;-67
2023/04/23 08:49:16;;;;;;;9.95;5.50;;;;;;;13.11;91.86;99878.81;5072268;28;20412;-67
2023/04/23 08:51:52;;;;;;;8.98;5.47;;;;;;;13.05;91.73;99869.16;5061946;28;20063;-68
2023/04/23 08:54:27;;;;;;;10.73;5.60;;;;;;;13.06;91.90;99862.47;5071335;28;20063;-65
2023/04/23 08:56:57;;;;;;;10.65;6.07;;;;;;;12.87;92.92;99851.22;5070742;28;20048;-66
2023/04/23 08:59:29;;;;;;;10.75;6.10;;;;;;;12.97;93.22;99855.47;5070240;28;20053;-65
2023/04/23 09:01:58;;;;;;;13.27;6.40;;;;;;;12.99;93.62;99836.56;5075436;28;20408;-67
2023/04/23 09:04:26;;;;;;;15.15;6.65;;;;;;;12.94;93.66;99834.03;5054914;28;20063;-69
2023/04/23 09:06:54;;;;;;;9.32;6.13;;;;;;;13.11;93.49;99834.56;5061762;28;20037;-67
2023/04/23 09:09:22;;;;;;;11.60;6.15;;;;;;;13.08;93.24;99826.16;5065696;28;20051;-66
2023/04/23 09:11:49;;;;;;;9.70;5.82;;;;;;;13.21;92.21;99813.91;5056025;28;20060;-68
2023/04/23 09:14:24;;;;;;;11.07;5.95;;;;;;;12.97;92.76;99797.41;5062212;28;20063;-67
2023/04/23 09:16:52;;;;;;;9.88;5.88;;;;;;;12.78;94.91;99805.53;5063015;28;20052;-68
2023/04/23 09:19:19;;;;;;;9.57;5.95;;;;;;;12.91;95.89;99799.59;5065633;28;20040;-67
2023/04/23 09:21:48;;;;;;;8.68;5.50;;;;;;;13.15;94.20;99798.72;5073922;28;20131;-66
2023/04/23 09:24:16;;;;;;;9.60;5.20;;;;;;;13.25;92.99;99785.19;5053337;28;20044;-66
2023/04/23 09:26:45;;;;;;;10.80;6.10;;;;;;;13.21;92.88;99781.53;5061108;28;20385;-67
2023/04/23 09:29:17;;;;;;;12.82;6.13;;;;;;;13.15;92.72;99771.06;5085141;28;20052;-66
2023/04/23 09:31:46;;;;;;;10.05;5.25;;;;;;;13.22;92.14;99766.56;5065648;28;20052;-66
2023/04/23 09:34:18;;;;;;;11.77;5.40;;;;;;;13.29;92.08;99757.63;5067928;28;20515;-66
2023/04/23 09:36:51;;;;;;;10.77;5.60;;;;;;;13.35;91.18;99765.31;5071086;28;20052;-66
2023/04/23 09:39:21;;;;;;;8.68;4.93;;;;;;;13.25;91.20;99754.78;5068496;28;20056;-67
2023/04/23 09:41:52;;;;;;;9.95;4.95;;;;;;;13.41;89.89;99749.25;5068804;28;20044;-66
2023/04/23 09:44:25;;;;;;;11.13;5.20;;;;;;;13.50;89.27;99744.38;5069936;28;20051;-66
2023/04/23 09:46:52;;;;;;;8.82;4.75;;;;;;;13.73;88.97;99750.06;5066261;28;20052;-66
2023/04/23 09:49:20;;;;;;;11.07;5.60;;;;;;;13.63;87.42;99750.63;5067207;28;20040;-66
2023/04/23 09:51:48;;;;;;;9.40;4.70;;;;;;;13.71;88.06;99755.97;5068173;28;20652;-66
2023/04/23 09:54:24;;;;;;;7.03;4.45;;;;;;;14.12;87.24;99743.53;5067328;28;20771;-66
2023/04/23 09:56:57;;;;;;;10.90;5.00;;;;;;;14.29;86.06;99749.50;5052229;28;20506;-67
2023/04/23 09:59:27;;;;;;;8.55;4.38;;;;;;;14.16;84.96;99741.63;5065426;28;20147;-67
2023/04/23 10:02:01;;;;;;;9.45;4.30;;;;;;;14.05;83.64;99741.38;5046890;28;20063;-67
2023/04/23 10:04:28;;;;;;;8.30;4.65;;;;;;;13.87;85.02;99731.06;5071641;28;20159;-66
2023/04/23 10:06:58;;;;;;;8.25;4.70;;;;;;;13.80;84.88;99726.16;5056080;28;20063;-67
2023/04/23 10:09:45;;;;;;;8.90;4.65;;;;;;;13.70;85.23;99720.34;5069411;28;20387;-67
2023/04/23 10:12:13;;;;;;;7.95;4.15;;;;;;;13.85;84.40;99708.47;5068644;28;20518;-66
2023/04/23 10:14:45;;;;;;;8.27;4.00;;;;;;;13.99;83.50;99706.03;5068466;28;20049;-66
2023/04/23 10:17:13;;;;;;;8.68;4.30;;;;;;;13.75;83.14;99718.13;5062234;28;20072;-67
2023/04/23 10:19:41;;;;;;;6.85;4.03;;;;;;;13.62;83.99;99696.41;5069422;28;20064;-67
2023/04/23 10:22:10;;;;;;;8.43;4.25;;;;;;;13.67;83.18;99687.88;5078289;28;20400;-67
2023/04/23 10:24:51;;;;;;;6.90;3.60;;;;;;;13.89;82.18;99676.94;5063757;28;20504;-67
2023/04/23 10:27:21;;;;;;;8.45;4.40;;;;;;;14.03;82.08;99673.69;5076055;28;20094;-68
2023/04/23 10:29:52;;;;;;;7.25;3.55;;;;;;;14.36;81.27;99668.50;5064857;28;20060;-66
2023/04/23 10:32:20;;;;;;;7.88;4.13;;;;;;;14.42;80.48;99665.09;5069613;28;20055;-66
2023/04/23 10:34:47;;;;;;;7.78;3.78;;;;;;;14.23;80.72;99673.34;5065060;28;20049;-66
2023/04/23 10:37:18;;;;;;;7.93;4.05;;;;;;;14.12;80.82;99668.75;5048075;28;20048;-67
2023/04/23 10:39:53;;;;;;;8.18;3.45;;;;;;;13.72;81.49;99659.94;5062726;28;20048;-68
2023/04/23 10:42:21;;;;;;;6.40;3.42;;;;;;;14.07;81.45;99646.88;5067678;28;20044;-65
2023/04/23 10:44:48;;;;;;;8.48;4.13;;;;;;;14.17;80.45;99638.81;5068316;28;20052;-66
2023/04/23 10:47:30;;;;;;;8.88;3.60;;;;;;;14.35;79.77;99641.97;5078849;28;20401;-68
2023/04/23 10:50:22;;;;;;;7.80;3.40;;;;;;;14.14;79.02;99628.44;5065292;28;20044;-66
2023/04/23 10:52:52;;;;;;;6.43;3.20;;;;;;;13.97;79.55;99626.09;5069068;28;20492;-67
2023/04/23 10:55:25;;;;;;;7.30;3.05;;;;;;;13.82;80.15;99621.44;5048226;28;20064;-67
2023/04/23 10:58:03;;;;;;;8.00;4.03;;;;;;;14.16;79.58;99611.47;5059734;28;20053;-67
2023/04/23 11:00:40;;;;;;;7.93;3.78;;;;;;;14.14;78.76;99602.75;5067833;28;20067;-66
2023/04/23 11:03:33;;;;;;;5.85;3.22;;;;;;;14.14;78.79;99595.22;5066667;28;20056;-67
2023/04/23 11:06:03;;;;;;;5.97;2.95;;;;;;;14.15;78.20;99579.41;5064181;28;20840;-67
2023/04/23 11:08:31;;;;;;;7.80;3.10;;;;;;;13.80;79.27;99573.13;5061961;28;20061;-67
2023/04/23 11:11:00;;;;;;;9.38;3.92;;;;;;;13.90;79.85;99575.31;5070685;28;20045;-69
2023/04/23 11:13:28;;;;;;;10.48;4.78;;;;;;;14.13;79.14;99565.13;5065037;28;20040;-67
2023/04/23 11:16:17;;;;;;;7.53;3.55;;;;;;;13.93;78.92;99567.06;5063122;28;20064;-67
2023/04/23 11:19:10;;;;;;;6.20;3.03;;;;;;;14.04;79.16;99565.34;5062400;28;20052;-67
2023/04/23 11:21:59;;;;;;;8.73;3.90;;;;;;;13.91;80.19;99552.81;5068052;28;20423;-67
2023/04/23 11:24:35;;;;;;;7.30;3.10;;;;;;;14.03;80.16;99549.91;5065174;28;20463;-68
2023/04/23 11:27:10;;;;;;;8.77;3.83;;;;;;;13.97;80.31;99539.47;5067984;28;20052;-65
2023/04/23 11:29:39;;;;;;;4.65;2.53;;;;;;;13.73;81.05;99520.38;5067327;28;20064;-66